Time;durP1;ratioP1;P1;durP2;ratioP2;P2;SDS_P1;SDS_P2;PMS_P1;PMS_P2;Temp;Humidity;BMP_temperature;BMP_pressure;BME280_temperature;BME280_humidity;BME280_pressure;Samples;Min_cycle;Max_cycle;Signal;HPM_P1;HPM_P2
2023/03/28 00:00:44;;;;;;;;;2.25;2.25;;;;;9.89;44.51;102312.50;6250269;22;45453;-65
2023/03/28 00:03:13;;;;;;;;;4.00;4.00;;;;;9.90;44.36;102308.91;6278463;22;45312;-66
2023/03/28 00:05:40;;;;;;;;;4.00;4.00;;;;;10.01;44.42;102327.56;6278213;22;45358;-66
2023/03/28 00:08:05;;;;;;;;;4.00;4.00;;;;;10.02;44.69;102331.97;6249695;22;47974;-66
2023/03/28 00:10:31;;;;;;;;;8.00;5.00;;;;;10.02;44.73;102332.88;6278257;22;45299;-66
2023/03/28 00:12:56;;;;;;;;;5.75;5.75;;;;;9.94;44.76;102308.03;6278197;22;45264;-66
2023/03/28 00:15:22;;;;;;;;;5.75;5.75;;;;;10.01;44.52;102336.44;6277765;22;45644;-66
2023/03/28 00:17:48;;;;;;;;;9.00;9.00;;;;;9.81;44.71;102309.84;6250062;22;46728;-66
2023/03/28 00:20:14;;;;;;;;;8.50;7.50;;;;;9.95;44.09;102336.44;6278268;22;45333;-65
2023/03/28 00:22:40;;;;;;;;;4.00;3.75;;;;;9.91;44.65;102329.38;6277906;22;45733;-66
2023/03/28 00:25:07;;;;;;;;;6.00;5.00;;;;;9.92;44.64;102333.81;6250376;22;45579;-66
2023/03/28 00:27:33;;;;;;;;;7.00;7.00;;;;;9.94;44.55;102334.69;6277062;22;46328;-65
2023/03/28 00:30:00;;;;;;;;;5.00;4.75;;;;;9.82;44.12;102324.97;6278231;22;45276;-66
2023/03/28 00:32:25;;;;;;;;;4.25;4.00;;;;;9.91;44.97;102326.69;6250807;22;45449;-66
2023/03/28 00:34:50;;;;;;;;;6.75;6.75;;;;;9.89;44.86;102332.94;6277869;22;45380;-65
2023/03/28 00:37:16;;;;;;;;;7.00;7.00;;;;;9.71;44.90;102289.44;6277085;22;45411;-65
2023/03/28 00:39:48;;;;;;;;;5.50;4.75;;;;;9.79;44.80;102302.75;6278433;22;45409;-66
2023/03/28 00:42:15;;;;;;;;;5.00;5.00;;;;;9.96;44.97;102332.03;6250282;22;45290;-66
2023/03/28 00:44:52;;;;;;;;;7.00;5.50;;;;;9.91;44.82;102328.50;6249862;22;45338;-66
2023/03/28 00:47:26;;;;;;;;;10.25;7.50;;;;;9.88;44.34;102323.16;6277901;22;46067;-65
2023/03/28 00:50:07;;;;;;;;;4.25;4.25;;;;;9.85;44.35;102321.38;6277781;22;45510;-66
2023/03/28 00:53:04;;;;;;;;;4.50;4.50;;;;;9.80;44.69;102323.19;6277618;22;45258;-65
2023/03/28 00:55:44;;;;;;;;;6.75;4.00;;;;;9.77;44.73;102313.44;6278155;22;45710;-66
2023/03/28 00:58:14;;;;;;;;;5.00;4.75;;;;;9.76;44.63;102310.78;6277442;22;45467;-66
2023/03/28 01:00:40;;;;;;;;;5.50;4.75;;;;;9.78;44.65;102323.19;6250491;22;45707;-66
2023/03/28 01:03:06;;;;;;;;;7.25;6.50;;;;;9.75;44.65;102320.53;6278111;22;45477;-66
2023/03/28 01:05:33;;;;;;;;;6.50;6.00;;;;;9.45;44.48;102269.13;6250535;22;45685;-66
2023/03/28 01:08:08;;;;;;;;;4.25;4.00;;;;;9.70;44.92;102319.66;6277582;22;46135;-66
2023/03/28 01:10:33;;;;;;;;;4.00;4.00;;;;;9.69;44.65;102315.25;6250371;22;45322;-66
2023/03/28 01:13:00;;;;;;;;;4.50;4.50;;;;;9.54;45.07;102299.28;6277640;22;45702;-66
2023/03/28 01:15:28;;;;;;;;;4.00;4.00;;;;;9.52;44.68;102296.63;6277134;22;45484;-66
2023/03/28 01:17:55;;;;;;;;;3.75;3.75;;;;;9.59;44.48;102305.50;6277324;22;45274;-66
2023/03/28 01:20:45;;;;;;;;;4.50;3.50;;;;;9.71;45.11;102318.78;6277734;22;45391;-66
2023/03/28 01:23:32;;;;;;;;;4.25;4.00;;;;;9.74;45.01;102320.53;6250431;22;45263;-66
2023/03/28 01:26:24;;;;;;;;;8.75;6.75;;;;;9.74;44.39;102315.19;6278106;22;45261;-66
2023/03/28 01:29:16;;;;;;;;;6.50;4.00;;;;;9.70;44.24;102314.31;6249694;22;47327;-66
2023/03/28 01:32:02;;;;;;;;;2.75;2.75;;;;;9.63;44.75;102313.47;6243846;22;45511;-65
2023/03/28 01:35:02;;;;;;;;;4.00;4.00;;;;;9.64;44.63;102307.25;6250128;22;45305;-66
2023/03/28 01:37:46;;;;;;;;;3.50;3.00;;;;;9.58;44.28;102301.94;6277678;22;45237;-66
2023/03/28 01:40:18;;;;;;;;;2.50;2.50;;;;;9.60;44.34;102305.47;6277879;22;46034;-66
2023/03/28 01:43:06;;;;;;;;;3.00;3.00;;;;;9.60;44.34;102299.25;6274500;22;45733;-66
2023/03/28 01:45:44;;;;;;;;;3.00;3.00;;;;;9.54;44.27;102284.19;6277775;22;45267;-66
2023/03/28 01:48:19;;;;;;;;;2.50;2.50;;;;;9.62;44.66;102289.47;6250058;22;45636;-66
2023/03/28 01:50:50;;;;;;;;;9.00;4.00;;;;;9.62;44.52;102287.72;6277500;22;46315;-66
2023/03/28 01:53:43;;;;;;;;;4.25;3.25;;;;;9.61;44.57;102275.25;6277968;22;45273;-66
2023/03/28 01:56:12;;;;;;;;;7.75;4.00;;;;;9.53;44.64;102262.88;6278147;22;45426;-66
2023/03/28 01:58:54;;;;;;;;;2.25;2.25;;;;;9.58;44.61;102272.59;6277105;22;45267;-66
2023/03/28 02:01:58;;;;;;;;;2.25;2.25;;;;;9.58;44.68;102267.28;6277609;22;45263;-66
2023/03/28 02:04:25;;;;;;;;;2.00;2.00;;;;;9.52;44.70;102248.66;6278073;22;45772;-66
2023/03/28 02:06:53;;;;;;;;;4.50;3.00;;;;;9.61;44.88;102250.38;6249521;22;45269;-65
2023/03/28 02:09:22;;;;;;;;;4.25;3.00;;;;;9.43;44.81;102216.69;6249915;22;45300;-65
2023/03/28 02:11:52;;;;;;;;;5.00;4.50;;;;;9.41;44.83;102207.81;6277499;22;45370;-66
2023/03/28 02:14:21;;;;;;;;;4.00;4.00;;;;;9.50;44.61;102236.22;6277084;22;45277;-65
2023/03/28 02:16:51;;;;;;;;;4.75;4.50;;;;;9.37;44.84;102211.38;6276957;22;45316;-66
2023/03/28 02:19:21;;;;;;;;;4.00;3.00;;;;;9.46;44.56;102222.88;6277409;22;45250;-66
2023/03/28 02:21:56;;;;;;;;;7.50;4.75;;;;;9.50;44.54;102237.09;6277281;22;46521;-66
2023/03/28 02:24:22;;;;;;;;;4.00;4.00;;;;;9.41;44.60;102230.03;6277785;22;45330;-66
2023/03/28 02:26:47;;;;;;;;;5.00;5.00;;;;;9.50;44.94;102231.75;6249586;22;45406;-66
2023/03/28 02:29:14;;;;;;;;;7.00;4.00;;;;;9.48;44.39;102227.34;6277564;22;45765;-65
2023/03/28 02:31:40;;;;;;;;;8.00;4.00;;;;;9.43;44.19;102222.03;6277633;22;45306;-66
2023/03/28 02:34:07;;;;;;;;;4.25;4.25;;;;;9.40;44.57;102230.03;6277648;22;45608;-65
2023/03/28 02:36:49;;;;;;;;;6.25;4.25;;;;;9.48;44.77;102244.22;6277558;22;45311;-65
2023/03/28 02:39:28;;;;;;;;;2.25;2.00;;;;;9.27;45.22;102203.44;6277560;22;45365;-65
2023/03/28 02:42:18;;;;;;;;;4.00;4.00;;;;;9.49;45.06;102238.00;6249765;22;47317;-66
2023/03/28 02:45:18;;;;;;;;;7.50;4.00;;;;;9.49;44.68;102231.75;6248459;22;45430;-65
2023/03/28 02:47:52;;;;;;;;;5.25;5.25;;;;;9.21;44.54;102179.47;6277568;22;45411;-65
2023/03/28 02:50:29;;;;;;;;;5.00;4.00;;;;;9.18;45.19;102167.94;6277560;22;45209;-66
2023/03/28 02:53:48;;;;;;;;;7.25;3.50;;;;;9.47;45.31;102223.75;6276978;22;45567;-65
2023/03/28 02:56:24;;;;;;;;;1.75;1.75;;;;;9.17;45.13;102168.81;6212822;22;45755;-65
2023/03/28 02:58:54;;;;;;;;;3.75;3.75;;;;;9.44;45.14;102211.34;6275938;22;45463;-65
2023/03/28 03:01:24;;;;;;;;;5.25;5.25;;;;;9.13;44.74;102164.41;6277613;22;45510;-66
2023/03/28 03:03:50;;;;;;;;;7.00;5.25;;;;;9.14;45.35;102160.81;6276924;22;46187;-65
2023/03/28 03:06:16;;;;;;;;;6.25;4.50;;;;;9.15;45.28;102163.50;6277248;22;45603;-65
2023/03/28 03:08:42;;;;;;;;;4.00;2.75;;;;;9.06;45.22;102153.75;6277700;22;45277;-65
2023/03/28 03:11:08;;;;;;;;;7.50;5.25;;;;;9.05;45.21;102151.09;6277591;22;45243;-66
2023/03/28 03:13:33;;;;;;;;;6.00;6.00;;;;;9.19;45.17;102169.72;6277253;22;45219;-65
2023/03/28 03:15:58;;;;;;;;;6.00;4.00;;;;;9.38;45.37;102208.72;6276964;22;45242;-65
2023/03/28 03:18:25;;;;;;;;;6.50;6.50;;;;;9.13;45.69;102159.94;6277303;22;45518;-66
2023/03/28 03:20:51;;;;;;;;;4.00;4.00;;;;;9.12;45.16;102141.31;6276332;22;45383;-66
2023/03/28 03:23:16;;;;;;;;;4.25;3.25;;;;;9.15;45.25;102152.84;6275572;22;46281;-65
2023/03/28 03:25:42;;;;;;;;;7.00;7.00;;;;;9.05;45.27;102140.44;6277234;22;45324;-66
2023/03/28 03:28:08;;;;;;;;;4.00;4.00;;;;;9.07;45.10;102141.31;6277058;22;45247;-66
2023/03/28 03:30:33;;;;;;;;;2.25;2.25;;;;;9.26;45.37;102167.00;6277187;22;45424;-65
2023/03/28 03:32:59;;;;;;;;;4.75;4.75;;;;;9.19;45.88;102151.06;6277151;22;45393;-65
2023/03/28 03:35:27;;;;;;;;;5.50;4.25;;;;;9.19;45.24;102137.75;6276863;22;45819;-66
2023/03/28 03:37:53;;;;;;;;;9.00;3.50;;;;;9.08;45.77;102114.69;6277034;22;45252;-65
2023/03/28 03:40:19;;;;;;;;;4.25;4.25;;;;;9.06;45.69;102119.13;6275527;22;45543;-66
2023/03/28 03:42:45;;;;;;;;;5.25;4.00;;;;;9.07;45.36;102125.34;6277056;22;45385;-65
2023/03/28 03:45:10;;;;;;;;;4.75;3.75;;;;;8.94;45.76;102110.28;6276807;22;45371;-66
2023/03/28 03:47:36;;;;;;;;;3.25;3.25;;;;;8.88;45.64;102104.09;6276357;22;45365;-66
2023/03/28 03:50:01;;;;;;;;;4.00;4.00;;;;;8.93;45.68;102117.41;6277219;22;45499;-65
2023/03/28 03:52:27;;;;;;;;;4.00;4.00;;;;;9.02;45.74;102140.44;6274116;22;47176;-65
2023/03/28 03:54:52;;;;;;;;;4.00;3.00;;;;;8.76;45.88;102101.50;6276954;22;45366;-66
2023/03/28 03:57:17;;;;;;;;;4.75;4.75;;;;;8.79;46.24;102117.47;6274698;22;45332;-65
2023/03/28 03:59:43;;;;;;;;;4.00;4.00;;;;;8.78;46.14;102109.47;6277268;22;46026;-65
2023/03/28 04:02:08;;;;;;;;;4.00;4.00;;;;;8.81;46.05;102115.69;6276905;22;46588;-66
2023/03/28 04:04:33;;;;;;;;;6.50;3.75;;;;;8.78;46.11;102107.69;6277098;22;45387;-66
2023/03/28 04:07:01;;;;;;;;;7.50;5.25;;;;;8.87;46.18;102115.66;6276775;22;45240;-66
2023/03/28 04:09:27;;;;;;;;;3.50;2.75;;;;;8.99;46.35;102132.50;6276936;22;45425;-66
2023/03/28 04:11:53;;;;;;;;;6.25;5.00;;;;;8.82;46.36;102101.47;6274462;22;46044;-65
2023/03/28 04:14:19;;;;;;;;;5.75;4.75;;;;;8.98;46.39;102122.72;6276602;22;45449;-66
2023/03/28 04:16:48;;;;;;;;;6.50;6.00;;;;;9.04;46.58;102141.34;6276757;22;45418;-66
2023/03/28 04:19:16;;;;;;;;;4.00;4.00;;;;;8.89;46.19;102113.88;6249250;22;45703;-65
2023/03/28 04:21:42;;;;;;;;;7.00;7.00;;;;;8.87;46.62;102112.09;6276296;22;46093;-65
2023/03/28 04:24:08;;;;;;;;;6.00;4.50;;;;;8.88;46.90;102117.41;6248958;22;45609;-66
2023/03/28 04:26:36;;;;;;;;;5.50;4.00;;;;;8.86;46.38;102119.22;6248365;22;45351;-65
2023/03/28 04:29:04;;;;;;;;;8.75;4.00;;;;;9.01;46.31;102138.69;6276099;22;45458;-65
2023/03/28 04:31:34;;;;;;;;;4.25;4.25;;;;;8.84;47.10;102114.78;6277265;22;45642;-65
2023/03/28 04:34:05;;;;;;;;;7.00;5.25;;;;;8.79;46.48;102108.59;6277822;22;45264;-65
2023/03/28 04:36:31;;;;;;;;;4.75;3.50;;;;;8.81;46.64;102104.16;6277699;22;45395;-65
2023/03/28 04:39:00;;;;;;;;;8.00;3.00;;;;;8.85;46.40;102121.88;6278136;22;45188;-66
2023/03/28 04:41:26;;;;;;;;;6.50;6.25;;;;;8.75;46.80;102105.03;6250183;22;46976;-65
2023/03/28 04:43:52;;;;;;;;;8.00;7.25;;;;;9.01;46.57;102150.22;6277741;22;45421;-65
2023/03/28 04:46:17;;;;;;;;;7.00;4.50;;;;;8.61;46.82;102074.94;6277615;22;45870;-66
2023/03/28 04:48:42;;;;;;;;;8.00;7.75;;;;;9.02;46.76;102151.09;6278048;22;45315;-66
2023/03/28 04:51:08;;;;;;;;;6.50;6.50;;;;;8.77;46.80;102113.94;6277782;22;46293;-65
2023/03/28 04:53:35;;;;;;;;;10.75;8.25;;;;;8.86;46.87;102135.19;6277853;22;45253;-65
2023/03/28 04:56:00;;;;;;;;;9.25;8.25;;;;;8.71;46.92;102114.81;6277724;22;45443;-65
2023/03/28 04:58:25;;;;;;;;;15.75;13.25;;;;;8.78;47.16;102130.78;6277351;22;45386;-65
2023/03/28 05:00:52;;;;;;;;;17.50;13.50;;;;;8.69;46.99;102124.59;6278060;22;46378;-65
2023/03/28 05:03:20;;;;;;;;;13.75;10.75;;;;;8.84;47.25;102152.06;6249860;22;45224;-66
2023/03/28 05:05:48;;;;;;;;;17.25;16.25;;;;;8.78;46.89;102141.44;6278376;22;45336;-66
2023/03/28 05:08:15;;;;;;;;;13.75;12.50;;;;;8.64;47.18;102113.06;6277741;22;45364;-65
2023/03/28 05:10:43;;;;;;;;;13.25;11.75;;;;;8.80;47.26;102150.28;6277742;22;45263;-66
2023/03/28 05:13:08;;;;;;;;;8.50;8.00;;;;;8.55;47.14;102099.75;6277168;22;45674;-65
2023/03/28 05:15:34;;;;;;;;;10.75;9.00;;;;;8.72;47.31;102131.69;6277878;22;45244;-65
2023/03/28 05:18:00;;;;;;;;;15.75;13.00;;;;;8.80;47.49;102145.84;6277610;22;45225;-65
2023/03/28 05:20:25;;;;;;;;;8.00;8.00;;;;;8.83;47.04;102150.28;6277631;22;45352;-66
2023/03/28 05:22:51;;;;;;;;;7.00;5.00;;;;;8.65;47.39;102135.22;6277340;22;45514;-65
2023/03/28 05:25:17;;;;;;;;;14.00;10.00;;;;;8.58;47.67;102125.50;6250195;22;45366;-66
2023/03/28 05:27:43;;;;;;;;;12.25;10.25;;;;;8.68;47.70;102138.78;6277392;22;45502;-65
2023/03/28 05:30:10;;;;;;;;;10.50;10.50;;;;;8.59;47.40;102121.97;6249932;22;47896;-65
2023/03/28 05:32:36;;;;;;;;;13.75;11.50;;;;;8.69;47.66;102131.69;6276956;22;45557;-66
2023/03/28 05:35:06;;;;;;;;;17.00;10.00;;;;;8.62;47.74;102109.53;6277070;22;45367;-66
2023/03/28 05:37:31;;;;;;;;;12.25;9.25;;;;;8.65;47.76;102125.50;6249668;22;45619;-65
2023/03/28 06:09:54;;;;;;;;;8.00;8.00;;;;;8.41;48.51;102105.09;6277407;22;45552;-66
2023/03/28 06:12:19;;;;;;;;;8.50;7.25;;;;;8.42;48.66;102127.25;6274022;22;47010;-68
2023/03/28 06:14:44;;;;;;;;;9.50;8.00;;;;;8.57;48.71;102171.63;6277544;22;45208;-68
2023/03/28 06:17:10;;;;;;;;;7.25;7.25;;;;;8.30;48.46;102139.69;6264190;22;45346;-68
2023/03/28 06:19:35;;;;;;;;;7.00;6.00;;;;;8.24;48.71;102142.34;6245727;22;45382;-68
2023/03/28 06:22:01;;;;;;;;;9.75;9.00;;;;;8.16;48.90;102138.81;6246325;22;45332;-68
2023/03/28 06:24:27;;;;;;;;;7.00;7.00;;;;;8.19;48.63;102133.50;6244800;22;45840;-67
2023/03/28 06:26:52;;;;;;;;;8.50;8.50;;;;;8.22;49.26;102153.88;6246309;22;45299;-67
2023/03/28 06:29:18;;;;;;;;;9.75;5.50;;;;;7.97;49.11;102112.22;6244641;22;45827;-68
2023/03/28 06:31:44;;;;;;;;;7.00;7.00;;;;;8.13;49.18;102141.47;6246062;22;45453;-69
2023/03/28 06:34:09;;;;;;;;;8.50;7.75;;;;;8.18;49.37;102155.66;6244887;22;45879;-67
2023/03/28 06:36:35;;;;;;;;;10.00;10.00;;;;;7.98;49.13;102121.97;6245792;22;45316;-67
2023/03/28 06:39:00;;;;;;;;;11.00;7.75;;;;;8.39;49.69;102204.44;6241961;22;45881;-66
2023/03/28 06:41:26;;;;;;;;;8.00;8.00;;;;;8.31;49.56;102177.81;6246079;22;45415;-66
2023/03/28 06:43:51;;;;;;;;;10.00;9.00;;;;;8.33;50.07;102186.69;6244868;22;45437;-66
2023/03/28 06:46:17;;;;;;;;;7.25;7.25;;;;;8.18;49.71;102153.00;6243856;22;45458;-66
2023/03/28 06:48:42;;;;;;;;;7.00;7.00;;;;;8.11;49.75;102146.78;6246309;22;45286;-66
2023/03/28 06:51:08;;;;;;;;;8.25;7.00;;;;;8.27;49.76;102178.69;6246513;22;46779;-66
2023/03/28 06:53:34;;;;;;;;;10.75;8.00;;;;;8.14;49.97;102157.41;6246190;22;45254;-66
2023/03/28 06:56:01;;;;;;;;;10.50;8.00;;;;;7.93;49.71;102125.50;6243646;22;45571;-66
2023/03/28 06:58:26;;;;;;;;;7.25;7.25;;;;;8.14;50.06;102156.53;6244928;22;45297;-66
2023/03/28 07:00:52;;;;;;;;;12.75;10.00;;;;;8.00;50.03;102145.00;6217964;22;47934;-66
2023/03/28 07:03:18;;;;;;;;;8.00;7.00;;;;;8.10;49.81;102150.34;6245632;22;45613;-65
2023/03/28 07:05:44;;;;;;;;;8.50;8.50;;;;;8.08;49.98;102152.09;6245235;22;45394;-65
2023/03/28 07:08:11;;;;;;;;;11.00;8.00;;;;;8.08;50.37;102144.13;6244198;22;45390;-65
2023/03/28 07:10:38;;;;;;;;;11.00;10.75;;;;;8.24;50.13;102162.75;6238999;22;45386;-65
2023/03/28 07:13:04;;;;;;;;;10.25;8.00;;;;;8.00;50.23;102127.25;6239193;22;45309;-65
2023/03/28 07:15:30;;;;;;;;;6.25;5.00;;;;;7.94;50.19;102121.97;6237046;22;45628;-65
2023/03/28 07:17:55;;;;;;;;;8.00;6.50;;;;;7.93;50.34;102112.19;6240329;22;45738;-65
2023/03/28 07:20:22;;;;;;;;;10.75;10.75;;;;;7.81;50.61;102086.50;6242618;22;46626;-65
2023/03/28 07:22:47;;;;;;;;;11.25;9.50;;;;;7.85;50.20;102090.03;6242696;22;45407;-65
2023/03/28 07:25:13;;;;;;;;;15.25;9.50;;;;;7.94;50.84;102106.00;6242262;22;45378;-65
2023/03/28 07:27:38;;;;;;;;;9.25;8.50;;;;;7.98;50.86;102100.69;6240638;22;45319;-65
2023/03/28 07:30:05;;;;;;;;;9.75;8.25;;;;;8.04;51.08;102101.59;6240780;22;45418;-65
2023/03/28 07:32:30;;;;;;;;;7.75;7.00;;;;;8.12;51.09;102110.44;6239664;22;45344;-66
2023/03/28 07:34:56;;;;;;;;;9.25;8.00;;;;;8.12;50.93;102114.00;6242522;22;45452;-66
2023/03/28 07:37:22;;;;;;;;;7.75;7.25;;;;;8.27;51.36;102129.06;6243357;22;45252;-66
2023/03/28 07:39:47;;;;;;;;;13.50;8.00;;;;;8.43;50.91;102150.34;6242960;22;46237;-66
2023/03/28 07:42:14;;;;;;;;;7.25;6.50;;;;;8.21;51.00;102123.72;6241734;22;45491;-66
2023/03/28 07:44:39;;;;;;;;;9.00;7.75;;;;;8.16;50.81;102105.09;6244163;22;45429;-65
2023/03/28 07:47:05;;;;;;;;;10.25;9.00;;;;;8.34;50.97;102141.47;6242406;22;45574;-65
2023/03/28 07:49:31;;;;;;;;;10.75;9.75;;;;;8.31;50.83;102127.28;6244391;22;46320;-65
2023/03/28 07:51:57;;;;;;;;;5.75;5.00;;;;;8.17;50.86;102106.00;6245428;22;45378;-66
2023/03/28 07:54:23;;;;;;;;;8.00;8.00;;;;;8.45;51.00;102145.91;6237572;22;45730;-65
2023/03/28 07:56:49;;;;;;;;;8.00;8.00;;;;;8.40;50.91;102129.91;6238632;22;45440;-65
2023/03/28 07:59:14;;;;;;;;;9.00;8.00;;;;;8.38;51.26;102128.16;6242249;22;45586;-65
2023/03/28 08:01:40;;;;;;;;;12.25;9.75;;;;;8.63;51.07;102161.84;6244177;22;45275;-65
2023/03/28 08:04:06;;;;;;;;;7.50;7.00;;;;;8.45;50.68;102132.59;6241983;22;45442;-65
2023/03/28 08:06:33;;;;;;;;;8.00;7.00;;;;;8.62;50.46;102160.09;6244317;22;45689;-65
2023/03/28 08:09:01;;;;;;;;;8.75;8.25;;;;;8.62;50.64;102137.91;6244710;22;45590;-65
2023/03/28 08:11:27;;;;;;;;;11.75;9.25;;;;;8.87;50.63;102168.94;6244214;22;45319;-65
2023/03/28 08:13:52;;;;;;;;;7.25;7.25;;;;;8.57;50.29;102123.72;6245225;22;45439;-65
2023/03/28 08:16:18;;;;;;;;;11.75;9.00;;;;;8.53;50.05;102129.03;6244155;22;45370;-66
2023/03/28 08:18:43;;;;;;;;;10.25;9.00;;;;;8.49;50.71;102115.75;6245063;22;45339;-65
2023/03/28 08:21:08;;;;;;;;;8.25;8.00;;;;;8.67;50.46;102137.03;6244631;22;45337;-65
2023/03/28 08:23:34;;;;;;;;;9.25;8.00;;;;;8.56;50.37;102120.19;6245017;22;45596;-65
2023/03/28 08:26:04;;;;;;;;;9.00;8.75;;;;;8.86;50.46;102167.13;6243983;22;45871;-65
2023/03/28 08:28:34;;;;;;;;;11.00;9.00;;;;;8.71;50.42;102112.16;6243293;22;45651;-65
2023/03/28 08:31:01;;;;;;;;;8.50;8.00;;;;;8.92;50.86;102150.28;6243738;22;45437;-65
2023/03/28 08:33:27;;;;;;;;;10.00;9.00;;;;;8.78;50.24;102118.34;6246748;22;45684;-65
2023/03/28 08:35:54;;;;;;;;;9.00;8.00;;;;;8.90;50.43;102126.31;6246290;22;45498;-65
2023/03/28 08:38:20;;;;;;;;;10.75;9.00;;;;;9.17;50.01;102158.16;6246382;22;45534;-65
2023/03/28 08:41:00;;;;;;;;;11.50;9.00;;;;;9.05;49.48;102135.13;6246383;22;45405;-66
2023/03/28 08:43:28;;;;;;;;;7.00;7.00;;;;;9.24;49.73;102173.25;6245947;22;45252;-65
2023/03/28 08:45:58;;;;;;;;;7.75;7.25;;;;;9.00;49.25;102128.94;6239662;22;45385;-66
2023/03/28 08:48:29;;;;;;;;;7.00;7.00;;;;;9.24;49.09;102165.25;6245085;22;45456;-65
2023/03/28 08:51:16;;;;;;;;;5.25;5.25;;;;;9.22;48.57;102143.94;6242936;22;45564;-66
2023/03/28 08:53:44;;;;;;;;;7.25;4.75;;;;;9.03;48.41;102104.94;6244183;22;45343;-64
2023/03/28 08:56:14;;;;;;;;;4.00;4.00;;;;;9.01;48.60;102099.63;6241968;22;45878;-68
2023/03/28 08:58:57;;;;;;;;;6.50;3.75;;;;;9.35;49.03;102128.75;6244621;22;46115;-72
2023/03/28 09:01:28;;;;;;;;;5.75;4.75;;;;;9.30;47.99;102111.03;6245170;22;45197;-72
2023/03/28 09:03:54;;;;;;;;;4.50;4.00;;;;;9.47;48.10;102143.81;6245492;22;45322;-72
2023/03/28 09:06:29;;;;;;;;;5.25;5.25;;;;;9.40;47.65;102126.09;6244984;22;45986;-72
2023/03/28 09:09:20;;;;;;;;;8.00;4.50;;;;;9.49;48.31;102128.72;6244427;22;46359;-65
2023/03/28 09:12:13;;;;;;;;;6.75;4.00;;;;;9.63;47.71;102136.63;6241451;22;45347;-65
2023/03/28 09:14:50;;;;;;;;;5.75;4.25;;;;;9.54;47.69;102118.00;6245273;22;45436;-65
2023/03/28 09:17:28;;;;;;;;;5.75;4.00;;;;;9.39;47.35;102087.03;6242621;22;45456;-64
2023/03/28 09:20:10;;;;;;;;;4.00;3.00;;;;;9.67;47.42;102132.16;6242240;22;45434;-64
2023/03/28 09:22:53;;;;;;;;;7.25;7.25;;;;;9.77;47.90;102126.75;6241965;22;45668;-64
2023/03/28 09:25:31;;;;;;;;;6.75;3.00;;;;;9.63;47.83;102102.84;6244627;22;45312;-64
2023/03/28 09:28:24;;;;;;;;;3.50;3.00;;;;;9.88;46.67;102133.78;6243109;22;45296;-64
2023/03/28 09:30:52;;;;;;;;;4.00;4.00;;;;;9.79;46.34;102114.28;6244929;22;45596;-65
2023/03/28 09:33:27;;;;;;;;;4.50;4.50;;;;;9.67;46.73;102084.16;6240772;22;46053;-65
2023/03/28 09:35:56;;;;;;;;;4.75;4.75;;;;;9.76;46.27;102100.97;6242066;22;45720;-64
2023/03/28 09:38:28;;;;;;;;;4.50;3.25;;;;;9.57;46.86;102060.25;6237331;22;45766;-64
2023/03/28 09:40:57;;;;;;;;;3.50;3.50;;;;;9.86;46.72;102092.91;6242159;22;46888;-64
2023/03/28 09:43:30;;;;;;;;;0.75;0.75;;;;;10.03;46.06;102099.00;6240447;22;45399;-64
2023/03/28 09:46:07;;;;;;;;;6.25;4.75;;;;;9.76;46.31;102052.97;6243614;22;45530;-65
2023/03/28 09:48:35;;;;;;;;;4.25;3.00;;;;;9.83;46.52;102043.16;6240917;22;45701;-64
2023/03/28 09:51:02;;;;;;;;;5.00;3.00;;;;;10.15;46.32;102090.00;6244631;22;45673;-64
2023/03/28 09:53:33;;;;;;;;;3.25;2.75;;;;;10.22;45.89;102080.16;6244674;22;45342;-64
2023/03/28 09:56:28;;;;;;;;;3.75;3.75;;;;;10.28;45.87;102075.63;6244398;22;45345;-65
2023/03/28 09:59:00;;;;;;;;;2.75;2.75;;;;;10.15;45.47;102042.84;6243664;22;45816;-64
2023/03/28 10:01:40;;;;;;;;;4.25;3.00;;;;;10.27;45.52;102057.84;6243964;22;45471;-64
2023/03/28 10:04:17;;;;;;;;;2.00;2.00;;;;;10.43;45.15;102084.44;6243988;22;45342;-65
2023/03/28 10:06:45;;;;;;;;;4.25;2.75;;;;;10.08;44.70;102006.47;6244672;22;45534;-64
2023/03/28 10:09:22;;;;;;;;;2.25;1.75;;;;;10.30;44.62;102041.81;6241510;22;45606;-64
2023/03/28 10:11:56;;;;;;;;;2.00;2.00;;;;;10.42;44.71;102048.81;6241851;22;45364;-64
2023/03/28 10:14:41;;;;;;;;;1.50;1.50;;;;;10.50;44.97;102049.63;6243002;22;45541;-64
2023/03/28 10:17:28;;;;;;;;;2.75;2.75;;;;;10.60;44.38;102049.53;6245077;22;45260;-64
2023/03/28 10:20:06;;;;;;;;;3.00;3.00;;;;;10.42;45.07;102016.78;6244985;22;45357;-64
2023/03/28 10:22:34;;;;;;;;;1.50;1.50;;;;;10.44;44.88;102014.09;6244781;22;45913;-64
2023/03/28 10:25:03;;;;;;;;;2.75;2.75;;;;;10.69;44.46;102046.75;6243329;22;45479;-64
2023/03/28 10:27:31;;;;;;;;;2.50;1.00;;;;;10.74;44.47;102056.47;6245060;22;45300;-64
2023/03/28 10:30:07;;;;;;;;;3.75;2.25;;;;;10.49;44.32;102002.50;6244394;22;45607;-64
2023/03/28 10:32:33;;;;;;;;;1.75;1.75;;;;;10.57;44.48;102003.28;6244999;22;45378;-64
2023/03/28 10:35:18;;;;;;;;;2.50;2.50;;;;;10.85;43.69;102052.78;6245743;22;45434;-64
2023/03/28 10:37:45;;;;;;;;;4.50;1.75;;;;;10.61;44.33;102003.22;6243052;22;45482;-64
2023/03/28 10:40:31;;;;;;;;;3.00;3.00;;;;;10.91;44.31;102042.03;6245818;22;45484;-64
2023/03/28 10:42:58;;;;;;;;;2.50;2.50;;;;;10.70;44.03;102003.13;6241333;22;48135;-64
2023/03/28 10:45:35;;;;;;;;;4.00;3.00;;;;;11.04;44.23;102040.97;6243445;22;45307;-64
2023/03/28 10:48:14;;;;;;;;;2.00;2.00;;;;;10.81;43.85;101990.53;6243873;22;45415;-64
2023/03/28 10:50:53;;;;;;;;;2.75;2.75;;;;;10.93;44.22;102001.03;6246059;22;45353;-64
2023/03/28 10:53:25;;;;;;;;;1.50;1.50;;;;;11.17;43.81;102027.44;6246034;22;45931;-64
2023/03/28 10:56:25;;;;;;;;;3.00;2.00;;;;;11.23;43.66;102025.53;6243752;22;45626;-64
2023/03/28 10:58:53;;;;;;;;;2.00;2.00;;;;;11.25;43.54;102017.50;6245979;22;45399;-64
2023/03/28 11:01:23;;;;;;;;;5.25;3.00;;;;;11.28;43.95;102013.00;6240820;22;45351;-64
2023/03/28 11:04:15;;;;;;;;;2.00;2.00;;;;;11.30;43.13;102005.84;6245546;22;45323;-64
2023/03/28 11:06:51;;;;;;;;;2.00;2.00;;;;;11.10;43.52;101965.16;6244926;22;45301;-64
2023/03/28 11:09:40;;;;;;;;;2.75;2.00;;;;;11.10;43.56;101966.03;6244771;22;45273;-64
2023/03/28 11:12:13;;;;;;;;;3.00;3.00;;;;;11.32;43.67;101997.78;6242025;22;45386;-64
2023/03/28 11:14:49;;;;;;;;;3.50;2.25;;;;;11.38;43.64;101999.50;6245161;22;46389;-65
2023/03/28 11:17:36;;;;;;;;;4.25;4.25;;;;;11.23;43.55;101960.53;6242717;22;45510;-64
2023/03/28 11:20:27;;;;;;;;;4.75;4.00;;;;;11.25;43.29;101956.03;6243684;22;45343;-64
2023/03/28 11:23:34;;;;;;;;;2.00;2.00;;;;;11.36;43.83;101980.81;6240979;22;45270;-64
2023/03/28 11:26:16;;;;;;;;;3.00;3.00;;;;;11.28;43.34;101954.19;6241385;22;45637;-64
2023/03/28 11:29:15;;;;;;;;;2.75;2.75;;;;;11.45;43.46;101961.94;6241911;22;45530;-64
2023/03/28 11:31:53;;;;;;;;;2.00;2.00;;;;;11.28;43.37;101946.16;6241118;22;45284;-64
2023/03/28 11:34:22;;;;;;;;;4.00;4.00;;;;;11.54;43.66;101984.97;6243048;22;45256;-64
2023/03/28 11:37:02;;;;;;;;;3.50;3.50;;;;;11.30;43.66;101940.81;6242832;22;46329;-65
2023/03/28 11:39:49;;;;;;;;;3.00;3.00;;;;;11.57;43.51;101971.53;6244314;22;45754;-65
2023/03/28 11:42:33;;;;;;;;;6.00;4.00;;;;;11.32;43.42;101923.81;6244020;22;45672;-65
2023/03/28 11:45:34;;;;;;;;;2.00;2.00;;;;;11.62;43.33;101961.63;6245763;22;45486;-65
2023/03/28 11:48:24;;;;;;;;;4.00;2.75;;;;;11.66;43.78;101949.09;6238627;22;45798;-65
2023/03/28 11:51:08;;;;;;;;;3.00;3.00;;;;;11.71;43.42;101947.25;6239266;22;45856;-65
2023/03/28 11:54:00;;;;;;;;;3.50;2.50;;;;;11.31;43.37;101868.59;6240549;22;45488;-69
2023/03/28 11:56:50;;;;;;;;;2.75;2.75;;;;;11.75;43.36;101940.91;6240492;22;45363;-63
2023/03/28 11:59:29;;;;;;;;;2.00;2.00;;;;;11.52;43.85;101903.00;6240454;22;45709;-64
2023/03/28 12:02:09;;;;;;;;;5.00;3.00;;;;;11.57;43.90;101909.16;6239224;22;46212;-64
2023/03/28 12:04:46;;;;;;;;;3.50;3.00;;;;;11.84;42.82;101940.75;6238476;22;45521;-64
2023/03/28 12:07:22;;;;;;;;;4.00;3.00;;;;;11.74;43.14;101899.00;6239601;22;45691;-65
2023/03/28 12:10:09;;;;;;;;;3.75;2.75;;;;;11.90;43.46;101912.13;6240280;22;45962;-64
2023/03/28 12:12:54;;;;;;;;;3.00;3.00;;;;;11.95;42.85;101907.59;6238286;22;45639;-65
2023/03/28 12:15:26;;;;;;;;;4.75;3.50;;;;;11.87;43.32;101886.31;6240934;22;45423;-64
2023/03/28 12:17:57;;;;;;;;;4.00;3.00;;;;;11.94;43.18;101887.97;6240647;22;45366;-64
2023/03/28 12:20:51;;;;;;;;;4.50;3.00;;;;;12.11;43.46;101908.16;6240021;22;45526;-64